Vitacura, Chile
Current Conditions -  °F | °C
As of 8:00 AM on Sunday 21 Dec 2014 (Local Time) from SCTB Reporting Station
Haze Haze  
Wind Chill: 52°   Ceiling: 1000
Heat Index: 52°   Visibility: 1.2mi
Dew Point: 50°   Wind: 5mph
Humidity: 94%   Direction: 220°SW
Pressure: 30.09"   Gusts: NA
Location:  33.4°S, 70.6°W
Report Text: SCTB 211200Z 22004KT 2000 BR OVC010 11/10 Q1019
Loading
Personal Weather Stations






























Interactive Weather Map New forecast layout! Learn more

10-Day Weather Forecast

Advertisements
Track Severe Weather on mobile